sensor_id;sensor_type;location;lat;lon;timestamp;P1;durP1;ratioP1;P2;durP2;ratioP2
71496;SDS011;59317;53.218;5.730;2022-10-31T00:01:28;25.10;;;12.77;;
71496;SDS011;59317;53.218;5.730;2022-10-31T00:03:55;25.50;;;13.55;;
71496;SDS011;59317;53.218;5.730;2022-10-31T00:06:21;26.40;;;13.82;;
71496;SDS011;59317;53.218;5.730;2022-10-31T00:08:51;24.35;;;12.90;;
71496;SDS011;59317;53.218;5.730;2022-10-31T00:11:17;31.48;;;13.95;;
71496;SDS011;59317;53.218;5.730;2022-10-31T00:13:43;28.08;;;13.18;;
71496;SDS011;59317;53.218;5.730;2022-10-31T00:16:13;28.13;;;13.70;;
71496;SDS011;59317;53.218;5.730;2022-10-31T00:18:39;30.20;;;13.30;;
71496;SDS011;59317;53.218;5.730;2022-10-31T00:21:05;26.58;;;12.85;;
71496;SDS011;59317;53.218;5.730;2022-10-31T00:23:31;32.15;;;13.52;;
71496;SDS011;59317;53.218;5.730;2022-10-31T00:26:03;25.55;;;12.23;;
71496;SDS011;59317;53.218;5.730;2022-10-31T00:28:31;25.92;;;12.27;;
71496;SDS011;59317;53.218;5.730;2022-10-31T00:31:01;27.33;;;11.75;;
71496;SDS011;59317;53.218;5.730;2022-10-31T00:33:27;28.97;;;12.33;;
71496;SDS011;59317;53.218;5.730;2022-10-31T00:35:53;32.40;;;13.10;;
71496;SDS011;59317;53.218;5.730;2022-10-31T00:38:20;25.33;;;12.23;;
71496;SDS011;59317;53.218;5.730;2022-10-31T00:40:46;31.80;;;13.32;;
71496;SDS011;59317;53.218;5.730;2022-10-31T00:43:12;29.13;;;12.35;;
71496;SDS011;59317;53.218;5.730;2022-10-31T00:45:38;31.70;;;12.98;;
71496;SDS011;59317;53.218;5.730;2022-10-31T00:48:04;32.20;;;13.48;;
71496;SDS011;59317;53.218;5.730;2022-10-31T00:50:30;36.97;;;14.27;;
71496;SDS011;59317;53.218;5.730;2022-10-31T00:52:56;31.60;;;12.40;;
71496;SDS011;59317;53.218;5.730;2022-10-31T00:55:22;34.90;;;14.15;;
71496;SDS011;59317;53.218;5.730;2022-10-31T00:57:49;29.52;;;12.63;;
71496;SDS011;59317;53.218;5.730;2022-10-31T01:00:15;32.50;;;13.65;;
71496;SDS011;59317;53.218;5.730;2022-10-31T01:02:41;27.17;;;12.35;;
71496;SDS011;59317;53.218;5.730;2022-10-31T01:05:07;30.45;;;13.05;;
71496;SDS011;59317;53.218;5.730;2022-10-31T01:07:36;26.88;;;12.70;;
71496;SDS011;59317;53.218;5.730;2022-10-31T01:10:03;26.40;;;11.43;;
71496;SDS011;59317;53.218;5.730;2022-10-31T01:12:29;24.30;;;11.45;;
71496;SDS011;59317;53.218;5.730;2022-10-31T01:14:55;28.08;;;12.45;;
71496;SDS011;59317;53.218;5.730;2022-10-31T01:17:21;26.23;;;12.30;;
71496;SDS011;59317;53.218;5.730;2022-10-31T01:19:47;27.15;;;10.65;;
71496;SDS011;59317;53.218;5.730;2022-10-31T01:22:13;27.92;;;11.02;;
71496;SDS011;59317;53.218;5.730;2022-10-31T01:24:39;24.25;;;11.05;;
71496;SDS011;59317;53.218;5.730;2022-10-31T01:27:05;20.90;;;9.98;;
71496;SDS011;59317;53.218;5.730;2022-10-31T01:29:31;26.53;;;10.93;;
71496;SDS011;59317;53.218;5.730;2022-10-31T01:31:57;26.27;;;10.97;;
71496;SDS011;59317;53.218;5.730;2022-10-31T01:34:23;25.55;;;10.95;;
71496;SDS011;59317;53.218;5.730;2022-10-31T01:36:49;23.38;;;10.55;;
71496;SDS011;59317;53.218;5.730;2022-10-31T01:39:16;26.48;;;9.98;;
71496;SDS011;59317;53.218;5.730;2022-10-31T01:41:43;25.52;;;11.35;;
71496;SDS011;59317;53.218;5.730;2022-10-31T01:46:40;28.35;;;12.60;;
71496;SDS011;59317;53.218;5.730;2022-10-31T01:57:36;26.17;;;12.43;;
71496;SDS011;59317;53.218;5.730;2022-10-31T02:00:04;30.10;;;12.45;;
71496;SDS011;59317;53.218;5.730;2022-10-31T02:02:31;29.15;;;13.60;;
71496;SDS011;59317;53.218;5.730;2022-10-31T02:04:58;32.17;;;14.57;;
71496;SDS011;59317;53.218;5.730;2022-10-31T02:07:30;35.30;;;15.45;;
71496;SDS011;59317;53.218;5.730;2022-10-31T02:09:58;32.45;;;14.68;;
71496;SDS011;59317;53.218;5.730;2022-10-31T02:12:25;34.70;;;15.05;;
71496;SDS011;59317;53.218;5.730;2022-10-31T02:14:51;33.38;;;15.10;;
71496;SDS011;59317;53.218;5.730;2022-10-31T02:17:17;30.48;;;13.75;;
71496;SDS011;59317;53.218;5.730;2022-10-31T02:40:31;33.83;;;14.77;;
71496;SDS011;59317;53.218;5.730;2022-10-31T02:43:06;33.47;;;14.45;;
71496;SDS011;59317;53.218;5.730;2022-10-31T02:45:37;32.23;;;14.63;;
71496;SDS011;59317;53.218;5.730;2022-10-31T02:48:09;33.08;;;14.93;;
71496;SDS011;59317;53.218;5.730;2022-10-31T02:50:37;34.33;;;14.93;;
71496;SDS011;59317;53.218;5.730;2022-10-31T02:53:05;35.50;;;16.67;;
71496;SDS011;59317;53.218;5.730;2022-10-31T02:58:10;33.22;;;15.05;;
71496;SDS011;59317;53.218;5.730;2022-10-31T03:00:44;34.92;;;15.27;;
71496;SDS011;59317;53.218;5.730;2022-10-31T03:06:05;33.40;;;15.50;;
71496;SDS011;59317;53.218;5.730;2022-10-31T03:11:04;32.70;;;15.77;;
71496;SDS011;59317;53.218;5.730;2022-10-31T03:16:21;39.25;;;16.92;;
71496;SDS011;59317;53.218;5.730;2022-10-31T03:18:50;37.93;;;17.37;;
71496;SDS011;59317;53.218;5.730;2022-10-31T03:21:20;33.90;;;15.77;;
71496;SDS011;59317;53.218;5.730;2022-10-31T03:23:48;36.00;;;16.55;;
71496;SDS011;59317;53.218;5.730;2022-10-31T03:26:15;35.40;;;16.30;;
71496;SDS011;59317;53.218;5.730;2022-10-31T03:28:43;36.47;;;16.10;;
71496;SDS011;59317;53.218;5.730;2022-10-31T03:31:10;36.25;;;16.15;;
71496;SDS011;59317;53.218;5.730;2022-10-31T03:33:38;33.30;;;15.13;;
71496;SDS011;59317;53.218;5.730;2022-10-31T03:36:05;35.27;;;15.77;;
71496;SDS011;59317;53.218;5.730;2022-10-31T03:38:33;33.88;;;14.77;;
71496;SDS011;59317;53.218;5.730;2022-10-31T03:41:01;32.67;;;15.75;;
71496;SDS011;59317;53.218;5.730;2022-10-31T03:43:30;33.33;;;15.63;;
71496;SDS011;59317;53.218;5.730;2022-10-31T03:45:57;35.08;;;15.82;;
71496;SDS011;59317;53.218;5.730;2022-10-31T03:48:24;33.80;;;15.35;;
71496;SDS011;59317;53.218;5.730;2022-10-31T03:53:52;36.70;;;16.35;;
71496;SDS011;59317;53.218;5.730;2022-10-31T03:56:22;35.10;;;16.52;;
71496;SDS011;59317;53.218;5.730;2022-10-31T03:58:57;34.88;;;16.27;;
71496;SDS011;59317;53.218;5.730;2022-10-31T04:01:24;35.65;;;16.80;;
71496;SDS011;59317;53.218;5.730;2022-10-31T04:03:51;33.53;;;15.13;;
71496;SDS011;59317;53.218;5.730;2022-10-31T04:06:18;33.33;;;16.70;;
71496;SDS011;59317;53.218;5.730;2022-10-31T04:08:47;28.83;;;15.00;;
71496;SDS011;59317;53.218;5.730;2022-10-31T04:11:14;30.37;;;14.53;;
71496;SDS011;59317;53.218;5.730;2022-10-31T04:13:42;32.70;;;15.90;;
71496;SDS011;59317;53.218;5.730;2022-10-31T04:16:10;34.83;;;15.98;;
71496;SDS011;59317;53.218;5.730;2022-10-31T04:18:37;30.02;;;13.55;;
71496;SDS011;59317;53.218;5.730;2022-10-31T04:21:04;30.33;;;14.05;;
71496;SDS011;59317;53.218;5.730;2022-10-31T04:23:31;27.40;;;12.57;;
71496;SDS011;59317;53.218;5.730;2022-10-31T04:25:58;32.13;;;14.80;;
71496;SDS011;59317;53.218;5.730;2022-10-31T04:28:24;27.63;;;12.68;;
71496;SDS011;59317;53.218;5.730;2022-10-31T04:30:50;31.38;;;14.25;;
71496;SDS011;59317;53.218;5.730;2022-10-31T04:33:16;30.50;;;14.18;;
71496;SDS011;59317;53.218;5.730;2022-10-31T04:35:42;33.72;;;14.23;;
71496;SDS011;59317;53.218;5.730;2022-10-31T04:38:08;32.92;;;15.80;;
71496;SDS011;59317;53.218;5.730;2022-10-31T04:40:34;39.03;;;17.42;;
71496;SDS011;59317;53.218;5.730;2022-10-31T04:43:00;39.85;;;18.63;;
71496;SDS011;59317;53.218;5.730;2022-10-31T04:45:26;40.75;;;19.00;;
71496;SDS011;59317;53.218;5.730;2022-10-31T04:47:52;41.42;;;18.77;;
71496;SDS011;59317;53.218;5.730;2022-10-31T04:50:18;37.97;;;17.40;;
71496;SDS011;59317;53.218;5.730;2022-10-31T04:52:45;38.67;;;16.05;;
71496;SDS011;59317;53.218;5.730;2022-10-31T04:55:11;34.57;;;15.17;;
71496;SDS011;59317;53.218;5.730;2022-10-31T04:57:42;33.80;;;14.75;;
71496;SDS011;59317;53.218;5.730;2022-10-31T05:00:08;26.42;;;12.38;;
71496;SDS011;59317;53.218;5.730;2022-10-31T05:02:41;27.60;;;12.02;;
71496;SDS011;59317;53.218;5.730;2022-10-31T05:05:07;29.13;;;11.85;;
71496;SDS011;59317;53.218;5.730;2022-10-31T05:07:33;29.60;;;12.70;;
71496;SDS011;59317;53.218;5.730;2022-10-31T05:10:03;34.80;;;14.48;;
71496;SDS011;59317;53.218;5.730;2022-10-31T05:12:29;37.75;;;16.83;;
71496;SDS011;59317;53.218;5.730;2022-10-31T05:14:55;40.33;;;16.08;;
71496;SDS011;59317;53.218;5.730;2022-10-31T05:17:21;40.05;;;16.40;;
71496;SDS011;59317;53.218;5.730;2022-10-31T05:19:54;42.70;;;17.35;;
71496;SDS011;59317;53.218;5.730;2022-10-31T05:22:20;42.83;;;17.35;;
71496;SDS011;59317;53.218;5.730;2022-10-31T05:24:46;39.95;;;17.50;;
71496;SDS011;59317;53.218;5.730;2022-10-31T05:27:12;38.70;;;16.20;;
71496;SDS011;59317;53.218;5.730;2022-10-31T05:29:38;39.50;;;16.20;;
71496;SDS011;59317;53.218;5.730;2022-10-31T05:32:04;34.25;;;14.77;;
71496;SDS011;59317;53.218;5.730;2022-10-31T05:34:30;32.80;;;14.63;;
71496;SDS011;59317;53.218;5.730;2022-10-31T05:36:56;31.53;;;13.20;;
71496;SDS011;59317;53.218;5.730;2022-10-31T05:39:22;27.42;;;12.20;;
71496;SDS011;59317;53.218;5.730;2022-10-31T05:41:48;30.70;;;13.48;;
71496;SDS011;59317;53.218;5.730;2022-10-31T05:44:14;39.50;;;17.00;;
71496;SDS011;59317;53.218;5.730;2022-10-31T05:46:40;36.85;;;17.17;;
71496;SDS011;59317;53.218;5.730;2022-10-31T05:49:06;36.03;;;15.82;;
71496;SDS011;59317;53.218;5.730;2022-10-31T05:51:32;34.45;;;13.98;;
71496;SDS011;59317;53.218;5.730;2022-10-31T05:53:58;31.02;;;13.93;;
71496;SDS011;59317;53.218;5.730;2022-10-31T05:56:24;34.40;;;13.67;;
71496;SDS011;59317;53.218;5.730;2022-10-31T05:58:50;32.73;;;13.50;;
71496;SDS011;59317;53.218;5.730;2022-10-31T06:01:16;37.50;;;14.60;;
71496;SDS011;59317;53.218;5.730;2022-10-31T06:03:42;36.70;;;14.98;;
71496;SDS011;59317;53.218;5.730;2022-10-31T06:06:07;31.67;;;13.80;;
71496;SDS011;59317;53.218;5.730;2022-10-31T06:08:33;37.78;;;14.93;;
71496;SDS011;59317;53.218;5.730;2022-10-31T06:10:59;38.63;;;16.60;;
71496;SDS011;59317;53.218;5.730;2022-10-31T06:13:25;42.72;;;18.02;;
71496;SDS011;59317;53.218;5.730;2022-10-31T06:15:51;36.95;;;16.00;;
71496;SDS011;59317;53.218;5.730;2022-10-31T06:18:17;38.60;;;16.93;;
71496;SDS011;59317;53.218;5.730;2022-10-31T06:20:43;38.57;;;16.57;;
71496;SDS011;59317;53.218;5.730;2022-10-31T06:23:09;42.90;;;18.42;;
71496;SDS011;59317;53.218;5.730;2022-10-31T06:25:35;40.67;;;18.07;;
71496;SDS011;59317;53.218;5.730;2022-10-31T06:28:01;41.55;;;18.42;;
71496;SDS011;59317;53.218;5.730;2022-10-31T06:30:28;41.63;;;17.80;;
71496;SDS011;59317;53.218;5.730;2022-10-31T06:32:54;39.65;;;17.25;;
71496;SDS011;59317;53.218;5.730;2022-10-31T06:35:20;37.83;;;17.17;;
71496;SDS011;59317;53.218;5.730;2022-10-31T06:37:52;41.13;;;17.50;;
71496;SDS011;59317;53.218;5.730;2022-10-31T06:40:19;38.10;;;17.80;;
71496;SDS011;59317;53.218;5.730;2022-10-31T06:42:45;39.88;;;17.02;;
71496;SDS011;59317;53.218;5.730;2022-10-31T06:45:11;42.47;;;17.77;;
71496;SDS011;59317;53.218;5.730;2022-10-31T06:47:37;40.38;;;18.60;;
71496;SDS011;59317;53.218;5.730;2022-10-31T06:50:03;40.47;;;19.15;;
71496;SDS011;59317;53.218;5.730;2022-10-31T06:52:29;39.75;;;17.88;;
71496;SDS011;59317;53.218;5.730;2022-10-31T06:54:55;40.78;;;18.92;;
71496;SDS011;59317;53.218;5.730;2022-10-31T06:57:21;41.80;;;19.70;;
71496;SDS011;59317;53.218;5.730;2022-10-31T06:59:47;39.03;;;18.50;;
71496;SDS011;59317;53.218;5.730;2022-10-31T07:02:15;39.80;;;19.50;;
71496;SDS011;59317;53.218;5.730;2022-10-31T07:04:41;41.73;;;18.63;;
71496;SDS011;59317;53.218;5.730;2022-10-31T07:07:07;34.15;;;17.58;;
71496;SDS011;59317;53.218;5.730;2022-10-31T07:09:33;38.83;;;18.45;;
71496;SDS011;59317;53.218;5.730;2022-10-31T07:11:59;39.60;;;19.50;;
71496;SDS011;59317;53.218;5.730;2022-10-31T07:14:24;40.97;;;20.90;;
71496;SDS011;59317;53.218;5.730;2022-10-31T07:16:51;41.00;;;20.65;;
71496;SDS011;59317;53.218;5.730;2022-10-31T07:19:17;35.85;;;20.02;;
71496;SDS011;59317;53.218;5.730;2022-10-31T07:21:43;32.40;;;17.48;;
71496;SDS011;59317;53.218;5.730;2022-10-31T07:24:09;28.05;;;16.45;;
71496;SDS011;59317;53.218;5.730;2022-10-31T07:26:35;25.50;;;15.60;;
71496;SDS011;59317;53.218;5.730;2022-10-31T07:29:01;27.75;;;15.88;;
71496;SDS011;59317;53.218;5.730;2022-10-31T07:31:27;27.15;;;16.13;;
71496;SDS011;59317;53.218;5.730;2022-10-31T07:33:53;27.75;;;16.77;;
71496;SDS011;59317;53.218;5.730;2022-10-31T07:36:19;27.60;;;15.60;;
71496;SDS011;59317;53.218;5.730;2022-10-31T07:38:45;25.20;;;15.07;;
71496;SDS011;59317;53.218;5.730;2022-10-31T07:41:11;25.50;;;15.17;;
71496;SDS011;59317;53.218;5.730;2022-10-31T07:43:36;23.33;;;14.63;;
71496;SDS011;59317;53.218;5.730;2022-10-31T07:46:02;25.98;;;15.30;;
71496;SDS011;59317;53.218;5.730;2022-10-31T07:48:28;24.88;;;14.15;;
71496;SDS011;59317;53.218;5.730;2022-10-31T07:50:55;25.90;;;14.52;;
71496;SDS011;59317;53.218;5.730;2022-10-31T07:53:21;25.25;;;15.25;;
71496;SDS011;59317;53.218;5.730;2022-10-31T07:55:47;24.00;;;14.40;;
71496;SDS011;59317;53.218;5.730;2022-10-31T07:58:13;22.95;;;13.32;;
71496;SDS011;59317;53.218;5.730;2022-10-31T08:00:41;22.65;;;14.10;;
71496;SDS011;59317;53.218;5.730;2022-10-31T08:03:08;21.33;;;13.27;;
71496;SDS011;59317;53.218;5.730;2022-10-31T08:05:34;21.85;;;12.52;;
71496;SDS011;59317;53.218;5.730;2022-10-31T08:08:01;21.63;;;12.65;;
71496;SDS011;59317;53.218;5.730;2022-10-31T08:10:27;19.80;;;12.15;;
71496;SDS011;59317;53.218;5.730;2022-10-31T08:12:57;20.33;;;11.40;;
71496;SDS011;59317;53.218;5.730;2022-10-31T08:15:24;16.05;;;10.50;;
71496;SDS011;59317;53.218;5.730;2022-10-31T08:17:50;17.70;;;10.98;;
71496;SDS011;59317;53.218;5.730;2022-10-31T08:20:16;17.95;;;11.00;;
71496;SDS011;59317;53.218;5.730;2022-10-31T08:22:42;16.52;;;11.05;;
71496;SDS011;59317;53.218;5.730;2022-10-31T08:25:08;17.80;;;11.27;;
71496;SDS011;59317;53.218;5.730;2022-10-31T08:27:34;16.17;;;9.80;;
71496;SDS011;59317;53.218;5.730;2022-10-31T08:30:00;19.27;;;11.20;;
71496;SDS011;59317;53.218;5.730;2022-10-31T08:32:26;15.82;;;9.82;;
71496;SDS011;59317;53.218;5.730;2022-10-31T08:34:52;17.33;;;10.68;;
71496;SDS011;59317;53.218;5.730;2022-10-31T08:37:18;17.33;;;10.45;;
71496;SDS011;59317;53.218;5.730;2022-10-31T08:39:45;16.53;;;10.00;;
71496;SDS011;59317;53.218;5.730;2022-10-31T08:42:11;16.88;;;10.05;;
71496;SDS011;59317;53.218;5.730;2022-10-31T08:44:37;17.02;;;10.73;;
71496;SDS011;59317;53.218;5.730;2022-10-31T08:47:03;15.63;;;9.50;;
71496;SDS011;59317;53.218;5.730;2022-10-31T08:49:29;15.83;;;9.30;;
71496;SDS011;59317;53.218;5.730;2022-10-31T08:51:55;16.37;;;9.87;;
71496;SDS011;59317;53.218;5.730;2022-10-31T08:54:21;14.60;;;10.00;;
71496;SDS011;59317;53.218;5.730;2022-10-31T08:56:47;17.70;;;10.27;;
71496;SDS011;59317;53.218;5.730;2022-10-31T08:59:13;13.50;;;9.18;;
71496;SDS011;59317;53.218;5.730;2022-10-31T09:01:39;13.50;;;8.57;;
71496;SDS011;59317;53.218;5.730;2022-10-31T09:04:05;14.57;;;9.10;;
71496;SDS011;59317;53.218;5.730;2022-10-31T09:06:31;14.35;;;9.73;;
71496;SDS011;59317;53.218;5.730;2022-10-31T09:08:57;14.43;;;9.23;;
71496;SDS011;59317;53.218;5.730;2022-10-31T09:11:23;17.23;;;10.32;;
71496;SDS011;59317;53.218;5.730;2022-10-31T09:13:49;16.05;;;10.35;;
71496;SDS011;59317;53.218;5.730;2022-10-31T09:16:15;13.98;;;8.75;;
71496;SDS011;59317;53.218;5.730;2022-10-31T09:18:41;15.50;;;9.73;;
71496;SDS011;59317;53.218;5.730;2022-10-31T09:21:07;14.15;;;9.32;;
71496;SDS011;59317;53.218;5.730;2022-10-31T09:23:33;15.10;;;9.65;;
71496;SDS011;59317;53.218;5.730;2022-10-31T09:26:00;13.75;;;8.70;;
71496;SDS011;59317;53.218;5.730;2022-10-31T09:28:26;13.88;;;8.80;;
71496;SDS011;59317;53.218;5.730;2022-10-31T09:30:52;12.75;;;7.18;;
71496;SDS011;59317;53.218;5.730;2022-10-31T09:33:18;13.30;;;6.90;;
71496;SDS011;59317;53.218;5.730;2022-10-31T09:35:45;15.02;;;8.02;;
71496;SDS011;59317;53.218;5.730;2022-10-31T09:38:12;13.15;;;7.90;;
71496;SDS011;59317;53.218;5.730;2022-10-31T09:43:16;12.87;;;7.57;;
71496;SDS011;59317;53.218;5.730;2022-10-31T09:45:58;11.43;;;6.20;;
71496;SDS011;59317;53.218;5.730;2022-10-31T09:51:00;11.07;;;6.57;;
71496;SDS011;59317;53.218;5.730;2022-10-31T09:55:55;11.85;;;6.38;;
71496;SDS011;59317;53.218;5.730;2022-10-31T09:58:23;13.32;;;7.15;;
71496;SDS011;59317;53.218;5.730;2022-10-31T10:00:50;12.10;;;6.60;;
71496;SDS011;59317;53.218;5.730;2022-10-31T10:03:24;12.73;;;6.47;;
71496;SDS011;59317;53.218;5.730;2022-10-31T10:08:48;12.30;;;7.17;;
71496;SDS011;59317;53.218;5.730;2022-10-31T10:13:47;14.93;;;8.68;;
71496;SDS011;59317;53.218;5.730;2022-10-31T10:26:51;17.83;;;9.20;;
71496;SDS011;59317;53.218;5.730;2022-10-31T10:29:29;14.27;;;7.50;;
71496;SDS011;59317;53.218;5.730;2022-10-31T10:31:57;15.75;;;9.13;;
71496;SDS011;59317;53.218;5.730;2022-10-31T10:34:27;16.50;;;10.25;;
71496;SDS011;59317;53.218;5.730;2022-10-31T10:36:58;12.43;;;6.17;;
71496;SDS011;59317;53.218;5.730;2022-10-31T10:39:36;16.48;;;8.57;;
71496;SDS011;59317;53.218;5.730;2022-10-31T10:42:07;17.95;;;10.00;;
71496;SDS011;59317;53.218;5.730;2022-10-31T10:44:54;17.33;;;10.17;;
71496;SDS011;59317;53.218;5.730;2022-10-31T10:47:42;16.65;;;9.60;;
71496;SDS011;59317;53.218;5.730;2022-10-31T10:58:03;13.43;;;7.13;;
71496;SDS011;59317;53.218;5.730;2022-10-31T11:00:31;15.47;;;8.40;;
71496;SDS011;59317;53.218;5.730;2022-10-31T11:02:57;16.15;;;8.23;;
71496;SDS011;59317;53.218;5.730;2022-10-31T11:07:50;14.37;;;8.40;;
71496;SDS011;59317;53.218;5.730;2022-10-31T11:10:16;11.63;;;5.80;;
71496;SDS011;59317;53.218;5.730;2022-10-31T11:12:43;14.15;;;7.10;;
71496;SDS011;59317;53.218;5.730;2022-10-31T11:15:20;12.35;;;6.80;;
71496;SDS011;59317;53.218;5.730;2022-10-31T11:17:48;12.02;;;6.07;;
71496;SDS011;59317;53.218;5.730;2022-10-31T11:22:41;12.00;;;6.45;;
71496;SDS011;59317;53.218;5.730;2022-10-31T11:27:46;12.30;;;6.73;;
71496;SDS011;59317;53.218;5.730;2022-10-31T11:30:13;10.88;;;5.90;;
71496;SDS011;59317;53.218;5.730;2022-10-31T11:32:42;10.40;;;4.93;;
71496;SDS011;59317;53.218;5.730;2022-10-31T11:35:11;12.73;;;6.57;;
71496;SDS011;59317;53.218;5.730;2022-10-31T11:37:41;15.93;;;6.93;;
71496;SDS011;59317;53.218;5.730;2022-10-31T11:40:15;11.53;;;6.03;;
71496;SDS011;59317;53.218;5.730;2022-10-31T11:42:41;12.13;;;6.18;;
71496;SDS011;59317;53.218;5.730;2022-10-31T11:45:19;12.68;;;5.30;;
71496;SDS011;59317;53.218;5.730;2022-10-31T11:47:52;9.02;;;4.35;;
71496;SDS011;59317;53.218;5.730;2022-10-31T11:50:23;10.32;;;4.97;;
71496;SDS011;59317;53.218;5.730;2022-10-31T11:52:50;9.95;;;5.25;;
71496;SDS011;59317;53.218;5.730;2022-10-31T11:55:33;10.38;;;4.82;;
71496;SDS011;59317;53.218;5.730;2022-10-31T11:57:59;11.10;;;4.93;;
71496;SDS011;59317;53.218;5.730;2022-10-31T12:03:03;10.35;;;5.28;;
71496;SDS011;59317;53.218;5.730;2022-10-31T12:05:29;12.43;;;5.90;;
71496;SDS011;59317;53.218;5.730;2022-10-31T12:07:58;10.87;;;5.50;;
71496;SDS011;59317;53.218;5.730;2022-10-31T12:10:25;11.38;;;6.10;;
71496;SDS011;59317;53.218;5.730;2022-10-31T12:13:00;12.20;;;6.40;;
71496;SDS011;59317;53.218;5.730;2022-10-31T12:15:31;12.23;;;6.43;;
71496;SDS011;59317;53.218;5.730;2022-10-31T12:20:32;13.73;;;7.32;;
71496;SDS011;59317;53.218;5.730;2022-10-31T12:25:50;14.00;;;6.70;;
71496;SDS011;59317;53.218;5.730;2022-10-31T12:28:41;16.23;;;7.67;;
71496;SDS011;59317;53.218;5.730;2022-10-31T12:33:55;17.48;;;8.15;;
71496;SDS011;59317;53.218;5.730;2022-10-31T12:39:17;14.90;;;6.78;;
71496;SDS011;59317;53.218;5.730;2022-10-31T12:41:55;16.38;;;7.65;;
71496;SDS011;59317;53.218;5.730;2022-10-31T12:45:07;16.53;;;8.93;;
71496;SDS011;59317;53.218;5.730;2022-10-31T12:49:58;15.95;;;8.75;;
71496;SDS011;59317;53.218;5.730;2022-10-31T12:59:53;15.68;;;8.10;;
71496;SDS011;59317;53.218;5.730;2022-10-31T13:02:25;16.67;;;8.80;;
71496;SDS011;59317;53.218;5.730;2022-10-31T13:04:57;14.87;;;7.00;;
71496;SDS011;59317;53.218;5.730;2022-10-31T13:12:25;13.05;;;5.38;;
71496;SDS011;59317;53.218;5.730;2022-10-31T13:14:53;11.67;;;5.17;;
71496;SDS011;59317;53.218;5.730;2022-10-31T13:17:39;11.75;;;4.80;;
71496;SDS011;59317;53.218;5.730;2022-10-31T13:22:38;11.07;;;4.85;;
71496;SDS011;59317;53.218;5.730;2022-10-31T13:25:10;11.30;;;3.97;;
71496;SDS011;59317;53.218;5.730;2022-10-31T13:27:43;10.00;;;4.13;;
71496;SDS011;59317;53.218;5.730;2022-10-31T13:30:21;9.48;;;2.60;;
71496;SDS011;59317;53.218;5.730;2022-10-31T13:38:32;9.65;;;2.90;;
71496;SDS011;59317;53.218;5.730;2022-10-31T13:46:36;6.38;;;1.55;;
71496;SDS011;59317;53.218;5.730;2022-10-31T13:49:03;8.43;;;2.25;;
71496;SDS011;59317;53.218;5.730;2022-10-31T13:51:30;7.28;;;2.03;;
71496;SDS011;59317;53.218;5.730;2022-10-31T13:53:58;8.50;;;2.72;;
71496;SDS011;59317;53.218;5.730;2022-10-31T13:56:25;8.40;;;2.08;;
71496;SDS011;59317;53.218;5.730;2022-10-31T14:01:45;8.73;;;1.75;;
71496;SDS011;59317;53.218;5.730;2022-10-31T14:06:57;7.35;;;1.90;;
71496;SDS011;59317;53.218;5.730;2022-10-31T14:09:26;8.95;;;2.20;;
71496;SDS011;59317;53.218;5.730;2022-10-31T14:11:53;10.07;;;2.28;;
71496;SDS011;59317;53.218;5.730;2022-10-31T14:14:19;7.57;;;2.17;;
71496;SDS011;59317;53.218;5.730;2022-10-31T14:16:46;11.07;;;2.60;;
71496;SDS011;59317;53.218;5.730;2022-10-31T14:19:18;7.50;;;2.20;;
71496;SDS011;59317;53.218;5.730;2022-10-31T14:21:46;9.07;;;2.43;;
71496;SDS011;59317;53.218;5.730;2022-10-31T14:27:01;7.93;;;2.10;;
71496;SDS011;59317;53.218;5.730;2022-10-31T14:29:31;9.02;;;2.40;;
71496;SDS011;59317;53.218;5.730;2022-10-31T14:31:59;9.32;;;2.70;;
71496;SDS011;59317;53.218;5.730;2022-10-31T14:34:27;7.80;;;2.78;;
71496;SDS011;59317;53.218;5.730;2022-10-31T14:37:01;9.52;;;2.83;;
71496;SDS011;59317;53.218;5.730;2022-10-31T14:39:31;9.38;;;3.10;;
71496;SDS011;59317;53.218;5.730;2022-10-31T14:50:05;10.37;;;3.73;;
71496;SDS011;59317;53.218;5.730;2022-10-31T14:52:32;10.23;;;3.88;;
71496;SDS011;59317;53.218;5.730;2022-10-31T14:55:00;10.93;;;4.03;;
71496;SDS011;59317;53.218;5.730;2022-10-31T14:57:31;10.15;;;4.00;;
71496;SDS011;59317;53.218;5.730;2022-10-31T14:59:59;10.13;;;4.18;;
71496;SDS011;59317;53.218;5.730;2022-10-31T15:02:40;12.98;;;3.97;;
71496;SDS011;59317;53.218;5.730;2022-10-31T15:05:09;12.13;;;3.60;;
71496;SDS011;59317;53.218;5.730;2022-10-31T15:07:35;9.68;;;3.40;;
71496;SDS011;59317;53.218;5.730;2022-10-31T15:10:05;9.43;;;3.50;;
71496;SDS011;59317;53.218;5.730;2022-10-31T15:12:35;9.02;;;3.38;;
71496;SDS011;59317;53.218;5.730;2022-10-31T15:15:13;8.55;;;3.00;;
71496;SDS011;59317;53.218;5.730;2022-10-31T15:17:47;9.93;;;3.07;;
71496;SDS011;59317;53.218;5.730;2022-10-31T15:20:19;12.27;;;3.33;;
71496;SDS011;59317;53.218;5.730;2022-10-31T15:22:46;9.32;;;3.17;;
71496;SDS011;59317;53.218;5.730;2022-10-31T15:25:17;11.25;;;3.45;;
71496;SDS011;59317;53.218;5.730;2022-10-31T15:27:43;9.65;;;3.25;;
71496;SDS011;59317;53.218;5.730;2022-10-31T15:30:16;9.68;;;3.10;;
71496;SDS011;59317;53.218;5.730;2022-10-31T15:32:43;9.02;;;2.83;;
71496;SDS011;59317;53.218;5.730;2022-10-31T15:35:10;11.97;;;3.20;;
71496;SDS011;59317;53.218;5.730;2022-10-31T15:37:36;9.90;;;3.03;;
71496;SDS011;59317;53.218;5.730;2022-10-31T15:40:06;9.90;;;2.58;;
71496;SDS011;59317;53.218;5.730;2022-10-31T15:42:34;9.23;;;2.60;;
71496;SDS011;59317;53.218;5.730;2022-10-31T15:45:05;9.10;;;2.72;;
71496;SDS011;59317;53.218;5.730;2022-10-31T15:47:31;10.70;;;2.90;;
71496;SDS011;59317;53.218;5.730;2022-10-31T15:49:59;9.67;;;2.90;;
71496;SDS011;59317;53.218;5.730;2022-10-31T15:52:27;9.27;;;2.60;;
71496;SDS011;59317;53.218;5.730;2022-10-31T15:54:58;8.40;;;2.30;;
71496;SDS011;59317;53.218;5.730;2022-10-31T15:57:25;10.23;;;2.63;;
71496;SDS011;59317;53.218;5.730;2022-10-31T15:59:52;9.68;;;2.53;;
71496;SDS011;59317;53.218;5.730;2022-10-31T16:02:19;8.35;;;2.53;;
71496;SDS011;59317;53.218;5.730;2022-10-31T16:05:14;9.17;;;2.10;;
71496;SDS011;59317;53.218;5.730;2022-10-31T16:07:35;8.60;;;2.13;;
71496;SDS011;59317;53.218;5.730;2022-10-31T16:10:02;11.38;;;1.80;;
71496;SDS011;59317;53.218;5.730;2022-10-31T16:12:35;7.82;;;1.90;;
71496;SDS011;59317;53.218;5.730;2022-10-31T16:15:02;8.70;;;1.80;;
71496;SDS011;59317;53.218;5.730;2022-10-31T16:17:29;9.27;;;1.75;;
71496;SDS011;59317;53.218;5.730;2022-10-31T16:19:57;9.02;;;1.88;;
71496;SDS011;59317;53.218;5.730;2022-10-31T16:22:25;8.85;;;1.88;;
71496;SDS011;59317;53.218;5.730;2022-10-31T16:27:28;9.93;;;2.00;;
71496;SDS011;59317;53.218;5.730;2022-10-31T16:29:58;8.38;;;1.85;;
71496;SDS011;59317;53.218;5.730;2022-10-31T16:35:18;9.40;;;2.20;;
71496;SDS011;59317;53.218;5.730;2022-10-31T16:37:44;8.77;;;2.28;;
71496;SDS011;59317;53.218;5.730;2022-10-31T16:40:11;9.27;;;2.50;;
71496;SDS011;59317;53.218;5.730;2022-10-31T16:42:40;7.75;;;2.45;;
71496;SDS011;59317;53.218;5.730;2022-10-31T16:45:06;9.75;;;2.80;;
71496;SDS011;59317;53.218;5.730;2022-10-31T16:47:33;10.10;;;2.97;;
71496;SDS011;59317;53.218;5.730;2022-10-31T16:49:59;10.43;;;3.00;;
71496;SDS011;59317;53.218;5.730;2022-10-31T16:52:25;11.80;;;3.15;;
71496;SDS011;59317;53.218;5.730;2022-10-31T16:54:51;10.48;;;4.03;;
71496;SDS011;59317;53.218;5.730;2022-10-31T16:57:20;10.98;;;3.65;;
71496;SDS011;59317;53.218;5.730;2022-10-31T16:59:48;13.95;;;4.75;;
71496;SDS011;59317;53.218;5.730;2022-10-31T17:02:18;12.30;;;4.55;;